ADDS METAR Data INFO
IDs: Format: Raw Decoded Include TAF

Data at: 1509 UTC 23 Oct 2017

KI75 231455Z AUTO 29015G19KT 7SM SCT120 13/06 A2990 RMK AO2 T01300055
KI75 231435Z AUTO 27008KT 7SM CLR 11/05 A2989 RMK AO2 T01140050
KI75 231415Z AUTO 26009KT 10SM CLR 11/05 A2989 RMK AO2 T01130051
KI75 231355Z AUTO 25007KT 10SM CLR 10/05 A2988 RMK AO2 T00990049
KI75 231335Z AUTO 24007KT 10SM CLR 09/05 A2989 RMK AO2 T00860046
KI75 231315Z AUTO 23007KT 10SM CLR 08/04 A2988 RMK AO2 T00750042
KI75 231255Z AUTO 19007KT 10SM CLR 07/04 A2986 RMK AO2 T00730040
KI75 231235Z AUTO 20007KT 10SM CLR 08/04 A2986 RMK AO2 T00750042
KI75 231215Z AUTO 19006KT 10SM CLR 07/04 A2987 RMK AO2 T00730041
KI75 231155Z AUTO 18006KT 10SM CLR 07/04 A2987 RMK AO2 T00690041 10089 20068
KI75 231135Z AUTO 19006KT 10SM CLR 07/04 A2988 RMK AO2 T00700042
KI75 231115Z AUTO 19006KT 10SM CLR 07/04 A2989 RMK AO2 T00740043
KI75 231055Z AUTO 19008KT 10SM CLR 08/05 A2989 RMK AO2 T00780045
KI75 231035Z AUTO 19007KT 10SM CLR 07/05 A2990 RMK AO2 T00740046
KI75 231015Z AUTO 17006KT 10SM CLR 08/05 A2991 RMK AO2 T00750045
KI75 230955Z AUTO 18005KT 10SM CLR 08/05 A2992 RMK AO2 T00780046
KI75 230935Z AUTO 18006KT 10SM CLR 08/05 A2993 RMK AO2 T00770047
KI75 230915Z AUTO 19006KT 10SM CLR 08/05 A2994 RMK AO2 T00750050
KI75 230855Z AUTO 18005KT 10SM CLR 08/05 A2995 RMK AO2 T00750050
KI75 230835Z AUTO 17006KT 10SM CLR 08/05 A2995 RMK AO2 T00770052
KI75 230815Z AUTO 17005KT 10SM CLR 08/05 A2996 RMK AO2 T00800053
KI75 230755Z AUTO 17005KT 10SM CLR 08/05 A2997 RMK AO2 T00800054
KI75 230735Z AUTO 17004KT 10SM CLR 08/05 A2998 RMK AO2 T00800053
KI75 230715Z AUTO 17005KT 10SM CLR 08/06 A2998 RMK AO2 T00830055
KI75 230655Z AUTO 18005KT 10SM CLR 09/06 A2998 RMK AO2 T00850055
KI75 230635Z AUTO 18005KT 10SM CLR 09/06 A2998 RMK AO2 T00850057
KI75 230615Z AUTO 18005KT 10SM CLR 09/06 A2999 RMK AO2 T00860057
KI75 230555Z AUTO 17006KT 10SM CLR 09/06 A3000 RMK AO2 T00870059 10127 20085 401800085
KI75 230535Z AUTO 17005KT 10SM CLR 09/06 A3000 RMK AO2 T00850060
KI75 230515Z AUTO 17005KT 10SM CLR 09/06 A3001 RMK AO2 T00870060
KI75 230455Z AUTO 18005KT 10SM CLR 09/06 A3001 RMK AO2 T00860060
KI75 230435Z AUTO 17005KT 10SM CLR 09/06 A3002 RMK AO2 T00900061
KI75 230415Z AUTO 18004KT 10SM CLR 09/06 A3002 RMK AO2 T00920062
KI75 230355Z AUTO 17005KT 10SM CLR 10/06 A3003 RMK AO2 T00950062
KI75 230335Z AUTO 17006KT 10SM CLR 10/06 A3003 RMK AO2 T00970062
KI75 230315Z AUTO 16005KT 10SM CLR 10/06 A3004 RMK AO2 T00990062
KI75 230255Z AUTO 16005KT 10SM CLR 10/06 A3004 RMK AO2 T01000061
KI75 230235Z AUTO 17005KT 10SM CLR 10/06 A3004 RMK AO2 T01000059
KI75 230215Z AUTO 16006KT 10SM CLR 10/05 A3005 RMK AO2 T01000054
KI75 230155Z AUTO 16006KT 10SM CLR 10/05 A3005 RMK AO2 T01020050
KI75 230135Z AUTO 16006KT 10SM CLR 10/05 A3005 RMK AO2 T01010050
KI75 230115Z AUTO 16004KT 10SM CLR 11/05 A3006 RMK AO2 T01140051
KI75 230055Z AUTO 17004KT 10SM CLR 11/05 A3005 RMK AO2 T01130052
KI75 230035Z AUTO 16005KT 10SM CLR 12/05 A3006 RMK AO2 T01170052
KI75 230015Z AUTO 15005KT 10SM CLR 12/05 A3006 RMK AO2 T01190050
KI75 222355Z AUTO 14004KT 7SM CLR 13/05 A3005 RMK AO2 T01270051 10180 20127
KI75 222335Z AUTO 14004KT 10SM CLR 14/05 A3005 RMK AO2 T01350051
KI75 222315Z AUTO 14004KT 7SM CLR 15/05 A3006 RMK AO2 T01520046
KI75 222255Z AUTO 14003KT 7SM CLR 17/03 A3005 RMK AO2 T01700033
KI75 222235Z AUTO 00000KT 5SM HZ CLR 18/02 A3005 RMK AO2 T01770021
KI75 222215Z AUTO 00000KT 7SM CLR 18/02 A3006 RMK AO2 T01800022
KI75 222155Z AUTO 00000KT 10SM CLR 18/01 A3006 RMK AO2 T01750013
KI75 222135Z AUTO 00000KT 10SM CLR 18/01 A3006 RMK AO2 T01750014
KI75 222115Z AUTO 00000KT 10SM CLR 18/02 A3006 RMK AO2 T01750019
KI75 222055Z AUTO 29004KT 5SM HZ CLR 17/03 A3006 RMK AO2 T01730032
KI75 222035Z AUTO 31004KT 7SM CLR 17/03 A3006 RMK AO2 T01730029
KI75 222015Z AUTO 30004KT 7SM CLR 17/04 A3006 RMK AO2 T01740035
KI75 221955Z AUTO 30006KT 7SM CLR 18/04 A3006 RMK AO2 T01750041
KI75 221935Z AUTO 29005KT 7SM CLR 17/04 A3007 RMK AO2 T01700037
KI75 221915Z AUTO 29008KT 10SM CLR 17/04 A3007 RMK AO2 T01670037
KI75 221855Z AUTO 30006KT 7SM CLR 17/05 A3008 RMK AO2 T01690051
KI75 221835Z AUTO 30006KT 7SM CLR 17/06 A3009 RMK AO2 T01650056
KI75 221815Z AUTO 29010KT 7SM CLR 16/06 A3009 RMK AO2 T01590055
KI75 221755Z AUTO 31007KT 7SM CLR 16/06 A3009 RMK AO2 T01560062 10156 20097
KI75 221735Z AUTO 31004KT 7SM CLR 15/06 A3009 RMK AO2 T01490060
KI75 221715Z AUTO 31009KT 7SM CLR 15/06 A3009 RMK AO2 T01480058
KI75 221655Z AUTO 32009KT 7SM CLR 15/07 A3009 RMK AO2 T01470066
KI75 221635Z AUTO 31009KT 10SM CLR 14/07 A3009 RMK AO2 T01400069
KI75 221615Z AUTO 32010KT 10SM CLR 13/07 A3008 RMK AO2 T01300068
KI75 221555Z AUTO 31007KT 10SM CLR 13/07 A3008 RMK AO2 T01260071
KI75 221535Z AUTO 30007KT 10SM CLR 11/07 A3008 RMK AO2 T01140072
KI75 221515Z AUTO 30008KT 10SM CLR 11/07 A3007 RMK AO2 T01090069
KI75 221455Z AUTO 30008KT 10SM SCT120 11/07 A3006 RMK AO2 T01080071
KI75 221435Z AUTO 30008KT 10SM CLR 11/08 A3006 RMK AO2 T01050075
KI75 221415Z AUTO 28007KT 10SM CLR 10/08 A3006 RMK AO2 T01010076
KI75 221355Z AUTO 28005KT 10SM CLR 10/08 A3005 RMK AO2 T01000076
KI75 221335Z AUTO 27005KT 10SM SCT120 10/08 A3005 RMK AO2 T01000075
KI75 221315Z AUTO 28005KT 10SM OVC110 10/08 A3004 RMK AO2 T00980076
KI75 221255Z AUTO 28005KT 10SM OVC110 10/08 A3003 RMK AO2 T00980077
KI75 221235Z AUTO 29006KT 10SM OVC110 10/08 A3002 RMK AO2 T01000076
KI75 221215Z AUTO 29006KT 10SM OVC110 10/08 A3001 RMK AO2 T00980080
KI75 221155Z AUTO 30007KT 10SM BKN075 OVC110 10/08 A3001 RMK AO2 60003 70107 T00980080 10105 20098
KI75 221135Z AUTO 29006KT 10SM BKN075 OVC080 10/08 A3001 RMK AO2 T00980082
KI75 221115Z AUTO 30004KT 10SM OVC075 10/09 A3001 RMK AO2 T00980086
KI75 221055Z AUTO 00000KT 10SM OVC075 10/09 A3000 RMK AO2 T00980087
KI75 221035Z AUTO 28004KT 10SM BKN075 OVC110 10/09 A3000 RMK AO2 T00990089
KI75 221015Z AUTO 00000KT 10SM -DZ OVC075 10/09 A3000 RMK AO2 T01000086
KI75 220955Z AUTO 00000KT 10SM -DZ OVC085 10/09 A3000 RMK AO2 T01000087
KI75 220935Z AUTO 00000KT 10SM -RA SCT070 OVC085 10/09 A2999 RMK AO2 T01000086
KI75 220915Z AUTO 00000KT 10SM -DZ OVC085 10/09 A2998 RMK AO2 T01000086
KI75 220855Z AUTO 34003KT 10SM -DZ OVC085 10/09 A2997 RMK AO2 60003 T00990085
KI75 220835Z AUTO 32005KT 10SM -DZ OVC085 10/09 A2997 RMK AO2 T00980086
KI75 220815Z AUTO 32004KT 10SM -DZ OVC085 10/09 A2998 RMK AO2 T01000086
KI75 220755Z AUTO 33004KT 10SM -RA SCT075 OVC085 10/09 A2996 RMK AO2 P0002 T01000085
KI75 220735Z AUTO 31005KT 10SM -RA SCT060 BKN070 OVC085 10/09 A2997 RMK AO2 P0002 T01000086
KI75 220715Z AUTO 34003KT 10SM -RA SCT070 OVC085 10/09 A2996 RMK AO2 P0001 T01010087
KI75 220655Z AUTO 31003KT 10SM -RA OVC085 10/09 A2998 RMK AO2 P0001 T01020087
KI75 220635Z AUTO 32004KT 10SM -RA SCT050 OVC085 10/09 A2997 RMK AO2 T01030087
KI75 220615Z AUTO 33006KT 10SM SCT050 BKN070 OVC100 11/09 A2995 RMK AO2 T01050088
KI75 220555Z AUTO 31009G15KT 10SM -RA SCT050 BKN065 OVC080 11/09 A2995 RMK AO2 P0012 60102 T01050090 10207 20105 402430105
KI75 220535Z AUTO 33011G14KT 7SM RA BKN050 OVC065 11/09 A2991 RMK AO2 P0010 T01060093
KI75 220515Z AUTO 31011G14KT 7SM RA SCT049 BKN065 OVC085 11/10 A2994 RMK AO2 P0005 T01100097
KI75 220455Z AUTO 29009KT 10SM -RA SCT055 SCT065 OVC085 11/10 A2995 RMK AO2 P0013 T01130102
KI75 220435Z AUTO 30009KT 7SM RA SCT018 SCT055 OVC065 12/11 A2994 RMK AO2 P0009 T01170106
KI75 220415Z AUTO 28007KT 7SM -RA SCT010 BKN018 OVC060 12/11 A2995 RMK AO2 P0004 T01200112
KI75 220355Z AUTO 31004KT 5SM RA SCT010 BKN044 OVC050 12/11 A2994 RMK AO2 P0034 T01200111
KI75 220335Z AUTO 32007KT 4SM +RA SCT011 BKN039 OVC047 12/11 A2994 RMK AO2 P0025 T01200110
KI75 220315Z AUTO 27005KT 4SM +RA SCT011 BKN028 OVC042 12/11 A2995 RMK AO2 P0012 T01220112